sensor_id;sensor_type;location;lat;lon;timestamp;pressure;altitude;pressure_sealevel;temperature;humidity
71239;BME280;61342;51.442;7.370;2023-02-18T00:00:36;100644.78;;;12.52;100.00
71239;BME280;61342;51.442;7.370;2023-02-18T00:01:36;100636.94;;;12.53;100.00
71239;BME280;61342;51.442;7.370;2023-02-18T00:02:37;100632.50;;;12.52;100.00
71239;BME280;61342;51.442;7.370;2023-02-18T00:03:37;100637.22;;;12.49;100.00
71239;BME280;61342;51.442;7.370;2023-02-18T00:04:38;100642.72;;;12.53;100.00
71239;BME280;61342;51.442;7.370;2023-02-18T00:05:38;100637.72;;;12.53;100.00
71239;BME280;61342;51.442;7.370;2023-02-18T00:06:39;100645.59;;;12.53;100.00
71239;BME280;61342;51.442;7.370;2023-02-18T00:07:40;100641.38;;;12.54;100.00
71239;BME280;61342;51.442;7.370;2023-02-18T00:08:41;100643.47;;;12.53;100.00
71239;BME280;61342;51.442;7.370;2023-02-18T00:09:42;100648.47;;;12.53;100.00
71239;BME280;61342;51.442;7.370;2023-02-18T00:10:42;100645.59;;;12.53;100.00
71239;BME280;61342;51.442;7.370;2023-02-18T00:11:43;100646.38;;;12.53;100.00
71239;BME280;61342;51.442;7.370;2023-02-18T00:12:43;100651.38;;;12.53;100.00
71239;BME280;61342;51.442;7.370;2023-02-18T00:13:52;100654.75;;;12.51;100.00
71239;BME280;61342;51.442;7.370;2023-02-18T00:14:53;100650.34;;;12.50;100.00
71239;BME280;61342;51.442;7.370;2023-02-18T00:15:53;100644.03;;;12.52;100.00
71239;BME280;61342;51.442;7.370;2023-02-18T00:16:54;100653.44;;;12.52;100.00
71239;BME280;61342;51.442;7.370;2023-02-18T00:17:54;100643.00;;;12.49;100.00
71239;BME280;61342;51.442;7.370;2023-02-18T00:19:02;100644.56;;;12.50;100.00
71239;BME280;61342;51.442;7.370;2023-02-18T00:20:04;100645.34;;;12.51;100.00
71239;BME280;61342;51.442;7.370;2023-02-18T00:21:06;100657.94;;;12.48;100.00
71239;BME280;61342;51.442;7.370;2023-02-18T00:22:07;100651.09;;;12.51;100.00
71239;BME280;61342;51.442;7.370;2023-02-18T00:23:07;100644.56;;;12.50;100.00
71239;BME280;61342;51.442;7.370;2023-02-18T00:24:08;100654.75;;;12.51;100.00
71239;BME280;61342;51.442;7.370;2023-02-18T00:25:08;100643.53;;;12.48;100.00
71239;BME280;61342;51.442;7.370;2023-02-18T00:26:15;100656.63;;;12.49;100.00
71239;BME280;61342;51.442;7.370;2023-02-18T00:27:16;100643.75;;;12.50;100.00
71239;BME280;61342;51.442;7.370;2023-02-18T00:28:16;100649.28;;;12.48;100.00
71239;BME280;61342;51.442;7.370;2023-02-18T00:29:17;100650.88;;;12.49;100.00
71239;BME280;61342;51.442;7.370;2023-02-18T00:30:18;100650.88;;;12.49;100.00
71239;BME280;61342;51.442;7.370;2023-02-18T00:31:23;100644.31;;;12.48;100.00
71239;BME280;61342;51.442;7.370;2023-02-18T00:32:24;100641.69;;;12.45;100.00
71239;BME280;61342;51.442;7.370;2023-02-18T00:33:25;100639.34;;;12.49;100.00
71239;BME280;61342;51.442;7.370;2023-02-18T00:34:25;100640.66;;;12.48;100.00
71239;BME280;61342;51.442;7.370;2023-02-18T00:35:26;100631.19;;;12.47;100.00
71239;BME280;61342;51.442;7.370;2023-02-18T00:36:27;100634.63;;;12.46;100.00
71239;BME280;61342;51.442;7.370;2023-02-18T00:37:27;100632.22;;;12.50;100.00
71239;BME280;61342;51.442;7.370;2023-02-18T00:38:28;100624.91;;;12.49;100.00
71239;BME280;61342;51.442;7.370;2023-02-18T00:39:28;100636.97;;;12.47;100.00
71239;BME280;61342;51.442;7.370;2023-02-18T00:40:28;100626.75;;;12.46;100.00
71239;BME280;61342;51.442;7.370;2023-02-18T00:41:29;100630.16;;;12.45;100.00
71239;BME280;61342;51.442;7.370;2023-02-18T00:42:30;100625.97;;;12.46;100.00
71239;BME280;61342;51.442;7.370;2023-02-18T00:43:30;100625.97;;;12.46;100.00
71239;BME280;61342;51.442;7.370;2023-02-18T00:44:30;100617.31;;;12.46;100.00
71239;BME280;61342;51.442;7.370;2023-02-18T00:45:31;100625.97;;;12.46;100.00
71239;BME280;61342;51.442;7.370;2023-02-18T00:46:31;100611.53;;;12.46;100.00
71239;BME280;61342;51.442;7.370;2023-02-18T00:47:32;100605.78;;;12.46;100.00
71239;BME280;61342;51.442;7.370;2023-02-18T00:48:33;100600.56;;;12.44;100.00
71239;BME280;61342;51.442;7.370;2023-02-18T00:49:34;100602.66;;;12.44;100.00
71239;BME280;61342;51.442;7.370;2023-02-18T00:50:34;100608.66;;;12.46;100.00
71239;BME280;61342;51.442;7.370;2023-02-18T00:51:35;100608.44;;;12.44;100.00
71239;BME280;61342;51.442;7.370;2023-02-18T00:52:36;100613.94;;;12.42;100.00
71239;BME280;61342;51.442;7.370;2023-02-18T00:53:37;100610.50;;;12.43;100.00
71239;BME280;61342;51.442;7.370;2023-02-18T00:54:37;100616.81;;;12.42;100.00
71239;BME280;61342;51.442;7.370;2023-02-18T00:55:40;100617.06;;;12.44;100.00
71239;BME280;61342;51.442;7.370;2023-02-18T00:56:40;100618.38;;;12.43;100.00
71239;BME280;61342;51.442;7.370;2023-02-18T00:57:41;100623.88;;;12.41;100.00
71239;BME280;61342;51.442;7.370;2023-02-18T00:58:41;100615.50;;;12.43;100.00
71239;BME280;61342;51.442;7.370;2023-02-18T00:59:42;100615.25;;;12.41;100.00
71239;BME280;61342;51.442;7.370;2023-02-18T01:00:43;100608.16;;;12.42;100.00
71239;BME280;61342;51.442;7.370;2023-02-18T01:01:43;100605.81;;;12.40;100.00
71239;BME280;61342;51.442;7.370;2023-02-18T01:02:44;100602.16;;;12.40;100.00
71239;BME280;61342;51.442;7.370;2023-02-18T01:03:44;100602.16;;;12.40;100.00
71239;BME280;61342;51.442;7.370;2023-02-18T01:04:45;100590.91;;;12.36;100.00
71239;BME280;61342;51.442;7.370;2023-02-18T01:05:45;100593.53;;;12.40;100.00
71239;BME280;61342;51.442;7.370;2023-02-18T01:06:46;100601.63;;;12.41;100.00
71239;BME280;61342;51.442;7.370;2023-02-18T01:07:47;100600.59;;;12.39;100.00
71239;BME280;61342;51.442;7.370;2023-02-18T01:08:47;100605.81;;;12.40;100.00
71239;BME280;61342;51.442;7.370;2023-02-18T01:09:48;100597.16;;;12.40;100.00
71239;BME280;61342;51.442;7.370;2023-02-18T01:10:53;100601.91;;;12.38;100.00
71239;BME280;61342;51.442;7.370;2023-02-18T01:11:53;100595.38;;;12.37;100.00
71239;BME280;61342;51.442;7.370;2023-02-18T01:12:54;100594.56;;;12.37;100.00
71239;BME280;61342;51.442;7.370;2023-02-18T01:13:54;100593.78;;;12.36;100.00
71239;BME280;61342;51.442;7.370;2023-02-18T01:14:55;100597.44;;;12.37;100.00
71239;BME280;61342;51.442;7.370;2023-02-18T01:15:55;100594.88;;;12.33;100.00
71239;BME280;61342;51.442;7.370;2023-02-18T01:16:56;100588.78;;;12.37;100.00
71239;BME280;61342;51.442;7.370;2023-02-18T01:17:57;100594.56;;;12.37;100.00
71239;BME280;61342;51.442;7.370;2023-02-18T01:18:57;100601.66;;;12.36;100.00
71239;BME280;61342;51.442;7.370;2023-02-18T01:19:58;100597.97;;;12.35;100.00
71239;BME280;61342;51.442;7.370;2023-02-18T01:20:59;100591.44;;;12.35;100.00
71239;BME280;61342;51.442;7.370;2023-02-18T01:21:59;100598.78;;;12.36;100.00
71239;BME280;61342;51.442;7.370;2023-02-18T01:22:59;100596.44;;;12.34;100.00
71239;BME280;61342;51.442;7.370;2023-02-18T01:24:00;100606.63;;;12.35;100.00
71239;BME280;61342;51.442;7.370;2023-02-18T01:25:00;100599.84;;;12.33;100.00
71239;BME280;61342;51.442;7.370;2023-02-18T01:26:01;100600.09;;;12.35;100.00
71239;BME280;61342;51.442;7.370;2023-02-18T01:27:01;100592.53;;;12.32;100.00
71239;BME280;61342;51.442;7.370;2023-02-18T01:28:02;100593.84;;;12.31;100.00
71239;BME280;61342;51.442;7.370;2023-02-18T01:29:02;100594.88;;;12.33;100.00
71239;BME280;61342;51.442;7.370;2023-02-18T01:30:08;100604.06;;;12.32;100.00
71239;BME280;61342;51.442;7.370;2023-02-18T01:31:12;100600.38;;;12.31;100.00
71239;BME280;61342;51.442;7.370;2023-02-18T01:32:12;100592.03;;;12.28;100.00
71239;BME280;61342;51.442;7.370;2023-02-18T01:33:13;100598.03;;;12.30;100.00
71239;BME280;61342;51.442;7.370;2023-02-18T01:34:13;100591.22;;;12.27;100.00
71239;BME280;61342;51.442;7.370;2023-02-18T01:35:16;100602.47;;;12.31;100.00
71239;BME280;61342;51.442;7.370;2023-02-18T01:36:17;100595.41;;;12.26;100.00
71239;BME280;61342;51.442;7.370;2023-02-18T01:37:17;100589.91;;;12.28;100.00
71239;BME280;61342;51.442;7.370;2023-02-18T01:38:17;100592.53;;;12.26;100.00
71239;BME280;61342;51.442;7.370;2023-02-18T01:39:18;100581.81;;;12.27;100.00
71239;BME280;61342;51.442;7.370;2023-02-18T01:40:21;100578.91;;;12.27;100.00
71239;BME280;61342;51.442;7.370;2023-02-18T01:41:22;100574.22;;;12.24;100.00
71239;BME280;61342;51.442;7.370;2023-02-18T01:42:26;100590.44;;;12.27;100.00
71239;BME280;61342;51.442;7.370;2023-02-18T01:43:26;100576.81;;;12.27;100.00
71239;BME280;61342;51.442;7.370;2023-02-18T01:44:27;100577.34;;;12.26;100.00
71239;BME280;61342;51.442;7.370;2023-02-18T01:46:37;100578.44;;;12.23;100.00
71239;BME280;61342;51.442;7.370;2023-02-18T01:47:37;100584.44;;;12.25;100.00
71239;BME280;61342;51.442;7.370;2023-02-18T01:48:51;100567.44;;;12.21;100.00
71239;BME280;61342;51.442;7.370;2023-02-18T01:49:53;100576.84;;;12.22;100.00
71239;BME280;61342;51.442;7.370;2023-02-18T01:50:59;100562.97;;;12.20;100.00
71239;BME280;61342;51.442;7.370;2023-02-18T01:52:08;100562.44;;;12.22;100.00
71239;BME280;61342;51.442;7.370;2023-02-18T01:53:14;100570.31;;;12.21;100.00
71239;BME280;61342;51.442;7.370;2023-02-18T01:54:33;100572.69;;;12.17;100.00
71239;BME280;61342;51.442;7.370;2023-02-18T01:55:35;100564.06;;;12.17;100.00
71239;BME280;61342;51.442;7.370;2023-02-18T01:56:54;100565.91;;;12.15;100.00
71239;BME280;61342;51.442;7.370;2023-02-18T01:57:56;100567.47;;;12.16;100.00
71239;BME280;61342;51.442;7.370;2023-02-18T01:59:00;100570.59;;;12.18;100.00
71239;BME280;61342;51.442;7.370;2023-02-18T02:00:07;100587.66;;;12.16;100.00
71239;BME280;61342;51.442;7.370;2023-02-18T02:01:09;100570.59;;;12.18;100.00
71239;BME280;61342;51.442;7.370;2023-02-18T02:02:13;100577.66;;;12.17;100.00
71239;BME280;61342;51.442;7.370;2023-02-18T02:03:14;100568.47;;;12.18;100.00
71239;BME280;61342;51.442;7.370;2023-02-18T02:04:15;100574.78;;;12.17;100.00
71239;BME280;61342;51.442;7.370;2023-02-18T02:05:16;100569.81;;;12.17;100.00
71239;BME280;61342;51.442;7.370;2023-02-18T02:06:19;100574.50;;;12.20;100.00
71239;BME280;61342;51.442;7.370;2023-02-18T02:07:21;100565.59;;;12.18;100.00
71239;BME280;61342;51.442;7.370;2023-02-18T02:08:22;100564.06;;;12.17;100.00
71239;BME280;61342;51.442;7.370;2023-02-18T02:09:24;100564.81;;;12.18;100.00
71239;BME280;61342;51.442;7.370;2023-02-18T02:10:34;100564.81;;;12.18;100.00
71239;BME280;61342;51.442;7.370;2023-02-18T02:15:23;100566.41;;;12.19;100.00
71239;BME280;61342;51.442;7.370;2023-02-18T02:16:36;100575.59;;;12.17;100.00
71239;BME280;61342;51.442;7.370;2023-02-18T02:22:54;100573.25;;;12.16;100.00
71239;BME280;61342;51.442;7.370;2023-02-18T02:26:00;100566.66;;;12.15;100.00
71239;BME280;61342;51.442;7.370;2023-02-18T02:27:24;100558.28;;;12.17;100.00
71239;BME280;61342;51.442;7.370;2023-02-18T02:30:07;100565.38;;;12.16;100.00
71239;BME280;61342;51.442;7.370;2023-02-18T02:32:54;100553.06;;;12.16;100.00
71239;BME280;61342;51.442;7.370;2023-02-18T02:36:50;100545.97;;;12.17;100.00
71239;BME280;61342;51.442;7.370;2023-02-18T02:38:03;100534.44;;;12.17;100.00
71239;BME280;61342;51.442;7.370;2023-02-18T02:39:13;100543.34;;;12.19;100.00
71239;BME280;61342;51.442;7.370;2023-02-18T02:41:48;100534.69;;;12.19;100.00
71239;BME280;61342;51.442;7.370;2023-02-18T02:47:03;100524.97;;;12.22;100.00
71239;BME280;61342;51.442;7.370;2023-02-18T02:49:59;100535.72;;;12.21;100.00
71239;BME280;61342;51.442;7.370;2023-02-18T02:52:12;100524.97;;;12.22;100.00
71239;BME280;61342;51.442;7.370;2023-02-18T02:53:22;100531.50;;;12.22;100.00
71239;BME280;61342;51.442;7.370;2023-02-18T02:54:26;100522.09;;;12.22;100.00
71239;BME280;61342;51.442;7.370;2023-02-18T02:55:27;100519.22;;;12.22;100.00
71239;BME280;61342;51.442;7.370;2023-02-18T02:56:27;100530.47;;;12.25;100.00
71239;BME280;61342;51.442;7.370;2023-02-18T02:58:28;100528.13;;;12.24;100.00
71239;BME280;61342;51.442;7.370;2023-02-18T02:59:29;100530.47;;;12.25;100.00
71239;BME280;61342;51.442;7.370;2023-02-18T03:01:36;100525.50;;;12.20;100.00
71239;BME280;61342;51.442;7.370;2023-02-18T03:04:07;100512.19;;;12.17;100.00
71239;BME280;61342;51.442;7.370;2023-02-18T03:06:02;100508.50;;;12.17;100.00
71239;BME280;61342;51.442;7.370;2023-02-18T03:07:13;100518.72;;;12.18;100.00
71239;BME280;61342;51.442;7.370;2023-02-18T03:11:10;100498.53;;;12.18;100.00
71239;BME280;61342;51.442;7.370;2023-02-18T03:17:34;100499.31;;;12.18;100.00
71239;BME280;61342;51.442;7.370;2023-02-18T03:18:43;100486.47;;;12.19;100.00
71239;BME280;61342;51.442;7.370;2023-02-18T03:19:54;100474.72;;;12.17;100.00
71239;BME280;61342;51.442;7.370;2023-02-18T03:21:10;100486.47;;;12.19;100.00
71239;BME280;61342;51.442;7.370;2023-02-18T03:22:30;100463.72;;;12.16;100.00
71239;BME280;61342;51.442;7.370;2023-02-18T03:23:36;100463.19;;;12.17;100.00
71239;BME280;61342;51.442;7.370;2023-02-18T03:24:41;100462.88;;;12.21;100.00
71239;BME280;61342;51.442;7.370;2023-02-18T03:25:43;100461.84;;;12.18;100.00
71239;BME280;61342;51.442;7.370;2023-02-18T03:26:47;100454.00;;;12.19;100.00
71239;BME280;61342;51.442;7.370;2023-02-18T03:27:52;100467.88;;;12.20;100.00
71239;BME280;61342;51.442;7.370;2023-02-18T03:28:55;100462.09;;;12.20;100.00
71239;BME280;61342;51.442;7.370;2023-02-18T03:30:09;100459.75;;;12.19;100.00
71239;BME280;61342;51.442;7.370;2023-02-18T03:31:16;100447.97;;;12.17;100.00
71239;BME280;61342;51.442;7.370;2023-02-18T03:32:20;100454.22;;;12.21;100.00
71239;BME280;61342;51.442;7.370;2023-02-18T03:33:27;100452.16;;;12.21;100.00
71239;BME280;61342;51.442;7.370;2023-02-18T03:34:33;100462.09;;;12.20;100.00
71239;BME280;61342;51.442;7.370;2023-02-18T03:35:36;100454.22;;;12.21;100.00
71239;BME280;61342;51.442;7.370;2023-02-18T03:36:38;100438.28;;;12.20;100.00
71239;BME280;61342;51.442;7.370;2023-02-18T03:37:44;100445.34;;;12.19;100.00
71239;BME280;61342;51.442;7.370;2023-02-18T03:38:58;100443.78;;;12.18;100.00
71239;BME280;61342;51.442;7.370;2023-02-18T03:40:00;100448.25;;;12.19;100.00
71239;BME280;61342;51.442;7.370;2023-02-18T03:41:01;100440.91;;;12.18;100.00
71239;BME280;61342;51.442;7.370;2023-02-18T03:42:02;100440.34;;;12.19;100.00
71239;BME280;61342;51.442;7.370;2023-02-18T03:43:02;100439.59;;;12.19;100.00
71239;BME280;61342;51.442;7.370;2023-02-18T03:44:05;100440.91;;;12.18;100.00
71239;BME280;61342;51.442;7.370;2023-02-18T03:45:06;100453.19;;;12.18;100.00
71239;BME280;61342;51.442;7.370;2023-02-18T03:46:07;100445.34;;;12.19;100.00
71239;BME280;61342;51.442;7.370;2023-02-18T03:47:07;100446.44;;;12.16;100.00
71239;BME280;61342;51.442;7.370;2023-02-18T03:48:08;100449.53;;;12.18;100.00
71239;BME280;61342;51.442;7.370;2023-02-18T03:49:09;100442.22;;;12.17;100.00
71239;BME280;61342;51.442;7.370;2023-02-18T03:50:10;100441.44;;;12.16;100.00
71239;BME280;61342;51.442;7.370;2023-02-18T03:51:10;100443.78;;;12.18;100.00
71239;BME280;61342;51.442;7.370;2023-02-18T03:52:11;100446.44;;;12.16;100.00
71239;BME280;61342;51.442;7.370;2023-02-18T03:53:11;100443.56;;;12.16;100.00
71239;BME280;61342;51.442;7.370;2023-02-18T03:54:12;100437.53;;;12.14;100.00
71239;BME280;61342;51.442;7.370;2023-02-18T03:55:13;100447.22;;;12.16;100.00
71239;BME280;61342;51.442;7.370;2023-02-18T03:56:14;100441.97;;;12.15;100.00
71239;BME280;61342;51.442;7.370;2023-02-18T03:57:14;100438.31;;;12.14;100.00
71239;BME280;61342;51.442;7.370;2023-02-18T03:58:14;100439.09;;;12.15;100.00
71239;BME280;61342;51.442;7.370;2023-02-18T03:59:15;100429.44;;;12.12;100.00
71239;BME280;61342;51.442;7.370;2023-02-18T04:00:16;100426.00;;;12.14;100.00
71239;BME280;61342;51.442;7.370;2023-02-18T04:01:16;100441.19;;;12.14;100.00
71239;BME280;61342;51.442;7.370;2023-02-18T04:02:17;100433.06;;;12.13;100.00
71239;BME280;61342;51.442;7.370;2023-02-18T04:03:17;100434.41;;;12.12;100.00
71239;BME280;61342;51.442;7.370;2023-02-18T04:04:17;100433.63;;;12.11;100.00
71239;BME280;61342;51.442;7.370;2023-02-18T04:05:18;100428.66;;;12.12;100.00
71239;BME280;61342;51.442;7.370;2023-02-18T04:06:18;100421.56;;;12.13;100.00
71239;BME280;61342;51.442;7.370;2023-02-18T04:07:18;100428.66;;;12.12;100.00
71239;BME280;61342;51.442;7.370;2023-02-18T04:08:19;100419.75;;;12.10;100.00
71239;BME280;61342;51.442;7.370;2023-02-18T04:09:19;100432.31;;;12.12;100.00
71239;BME280;61342;51.442;7.370;2023-02-18T04:10:20;100416.88;;;12.10;100.00
71239;BME280;61342;51.442;7.370;2023-02-18T04:11:22;100429.44;;;12.12;100.00
71239;BME280;61342;51.442;7.370;2023-02-18T04:12:22;100415.56;;;12.11;100.00
71239;BME280;61342;51.442;7.370;2023-02-18T04:13:22;100422.09;;;12.11;100.00
71239;BME280;61342;51.442;7.370;2023-02-18T04:14:23;100427.09;;;12.11;100.00
71239;BME280;61342;51.442;7.370;2023-02-18T04:15:23;100432.84;;;12.11;100.00
71239;BME280;61342;51.442;7.370;2023-02-18T04:16:23;100411.09;;;12.10;100.00
71239;BME280;61342;51.442;7.370;2023-02-18T04:17:24;100409.31;;;12.07;100.00
71239;BME280;61342;51.442;7.370;2023-02-18T04:18:24;100414.00;;;12.10;100.00
71239;BME280;61342;51.442;7.370;2023-02-18T04:19:25;100418.19;;;12.09;100.00
71239;BME280;61342;51.442;7.370;2023-02-18T04:20:25;100422.63;;;12.10;100.00
71239;BME280;61342;51.442;7.370;2023-02-18T04:21:26;100413.50;;;12.06;100.00
71239;BME280;61342;51.442;7.370;2023-02-18T04:22:26;100412.97;;;12.07;100.00
71239;BME280;61342;51.442;7.370;2023-02-18T04:23:27;100415.28;;;12.09;100.00
71239;BME280;61342;51.442;7.370;2023-02-18T04:24:27;100416.63;;;12.08;100.00
71239;BME280;61342;51.442;7.370;2023-02-18T04:25:27;100419.75;;;12.10;100.00
71239;BME280;61342;51.442;7.370;2023-02-18T04:26:28;100405.13;;;12.08;100.00
71239;BME280;61342;51.442;7.370;2023-02-18T04:27:28;100398.00;;;12.09;100.00
71239;BME280;61342;51.442;7.370;2023-02-18T04:28:29;100405.13;;;12.08;100.00
71239;BME280;61342;51.442;7.370;2023-02-18T04:29:29;100409.31;;;12.07;100.00
71239;BME280;61342;51.442;7.370;2023-02-18T04:30:29;100416.88;;;12.10;100.00
71239;BME280;61342;51.442;7.370;2023-02-18T04:31:30;100405.13;;;12.08;100.00
71239;BME280;61342;51.442;7.370;2023-02-18T04:32:30;100403.53;;;12.07;100.00
71239;BME280;61342;51.442;7.370;2023-02-18T04:33:30;100405.34;;;12.10;100.00
71239;BME280;61342;51.442;7.370;2023-02-18T04:34:31;100411.09;;;12.10;100.00
71239;BME280;61342;51.442;7.370;2023-02-18T04:35:31;100407.47;;;12.09;100.00
71239;BME280;61342;51.442;7.370;2023-02-18T04:36:32;100398.81;;;12.09;100.00
71239;BME280;61342;51.442;7.370;2023-02-18T04:37:32;100405.88;;;12.08;100.00
71239;BME280;61342;51.442;7.370;2023-02-18T04:38:32;100402.47;;;12.10;100.00
71239;BME280;61342;51.442;7.370;2023-02-18T04:39:33;100397.25;;;12.08;100.00
71239;BME280;61342;51.442;7.370;2023-02-18T04:40:33;100401.69;;;12.09;100.00
71239;BME280;61342;51.442;7.370;2023-02-18T04:41:34;100395.94;;;12.09;100.00
71239;BME280;61342;51.442;7.370;2023-02-18T04:42:34;100396.69;;;12.10;100.00
71239;BME280;61342;51.442;7.370;2023-02-18T04:43:34;100382.06;;;12.08;100.00
71239;BME280;61342;51.442;7.370;2023-02-18T04:44:36;100387.81;;;12.08;100.00
71239;BME280;61342;51.442;7.370;2023-02-18T04:45:36;100386.25;;;12.07;100.00
71239;BME280;61342;51.442;7.370;2023-02-18T04:46:36;100378.63;;;12.09;100.00
71239;BME280;61342;51.442;7.370;2023-02-18T04:47:37;100370.53;;;12.08;100.00
71239;BME280;61342;51.442;7.370;2023-02-18T04:48:37;100371.84;;;12.07;100.00
71239;BME280;61342;51.442;7.370;2023-02-18T04:49:38;100375.75;;;12.09;100.00
71239;BME280;61342;51.442;7.370;2023-02-18T04:50:38;100377.84;;;12.09;100.00
71239;BME280;61342;51.442;7.370;2023-02-18T04:51:38;100372.88;;;12.09;100.00
71239;BME280;61342;51.442;7.370;2023-02-18T04:52:39;100367.66;;;12.08;100.00
71239;BME280;61342;51.442;7.370;2023-02-18T04:53:39;100360.31;;;12.07;100.00
71239;BME280;61342;51.442;7.370;2023-02-18T04:54:39;100375.75;;;12.09;100.00
71239;BME280;61342;51.442;7.370;2023-02-18T04:55:40;100367.13;;;12.09;100.00
71239;BME280;61342;51.442;7.370;2023-02-18T04:56:40;100363.44;;;12.09;100.00
71239;BME280;61342;51.442;7.370;2023-02-18T04:57:40;100360.56;;;12.09;100.00
71239;BME280;61342;51.442;7.370;2023-02-18T04:58:41;100355.88;;;12.06;100.00
71239;BME280;61342;51.442;7.370;2023-02-18T04:59:41;100366.31;;;12.09;100.00
71239;BME280;61342;51.442;7.370;2023-02-18T05:00:41;100355.63;;;12.04;100.00
71239;BME280;61342;51.442;7.370;2023-02-18T05:01:42;100358.50;;;12.04;100.00
71239;BME280;61342;51.442;7.370;2023-02-18T05:02:43;100365.53;;;12.08;100.00
71239;BME280;61342;51.442;7.370;2023-02-18T05:03:43;100355.88;;;12.06;100.00
71239;BME280;61342;51.442;7.370;2023-02-18T05:04:45;100353.25;;;12.08;100.00
71239;BME280;61342;51.442;7.370;2023-02-18T05:05:45;100358.22;;;12.07;100.00
71239;BME280;61342;51.442;7.370;2023-02-18T05:06:45;100352.22;;;12.06;100.00
71239;BME280;61342;51.442;7.370;2023-02-18T05:07:46;100354.31;;;12.05;100.00
71239;BME280;61342;51.442;7.370;2023-02-18T05:08:46;100355.88;;;12.06;100.00
71239;BME280;61342;51.442;7.370;2023-02-18T05:09:46;100348.84;;;12.02;100.00
71239;BME280;61342;51.442;7.370;2023-02-18T05:10:47;100356.63;;;12.07;100.00
71239;BME280;61342;51.442;7.370;2023-02-18T05:11:47;100345.66;;;12.05;100.00
71239;BME280;61342;51.442;7.370;2023-02-18T05:12:48;100342.56;;;12.03;100.00
71239;BME280;61342;51.442;7.370;2023-02-18T05:13:48;100352.22;;;12.06;100.00
71239;BME280;61342;51.442;7.370;2023-02-18T05:14:48;100338.88;;;12.03;100.00
71239;BME280;61342;51.442;7.370;2023-02-18T05:15:49;100349.63;;;12.02;100.00
71239;BME280;61342;51.442;7.370;2023-02-18T05:16:49;100351.19;;;12.03;100.00
71239;BME280;61342;51.442;7.370;2023-02-18T05:17:49;100346.75;;;12.02;100.00
71239;BME280;61342;51.442;7.370;2023-02-18T05:18:49;100342.06;;;11.99;100.00
71239;BME280;61342;51.442;7.370;2023-02-18T05:19:50;100346.47;;;12.00;100.00
71239;BME280;61342;51.442;7.370;2023-02-18T05:20:50;100345.72;;;12.00;100.00
71239;BME280;61342;51.442;7.370;2023-02-18T05:21:50;100345.72;;;12.00;100.00
71239;BME280;61342;51.442;7.370;2023-02-18T05:22:51;100327.41;;;11.97;100.00
71239;BME280;61342;51.442;7.370;2023-02-18T05:23:51;100326.84;;;11.99;100.00
71239;BME280;61342;51.442;7.370;2023-02-18T05:24:52;100347.81;;;11.99;100.00
71239;BME280;61342;51.442;7.370;2023-02-18T05:25:53;100333.41;;;11.99;100.00
71239;BME280;61342;51.442;7.370;2023-02-18T05:26:54;100329.50;;;11.97;100.00
71239;BME280;61342;51.442;7.370;2023-02-18T05:27:54;100324.53;;;11.97;100.00
71239;BME280;61342;51.442;7.370;2023-02-18T05:28:54;100320.31;;;11.98;100.00
71239;BME280;61342;51.442;7.370;2023-02-18T05:29:56;100324.78;;;11.99;100.00
71239;BME280;61342;51.442;7.370;2023-02-18T05:30:56;100320.31;;;11.98;100.00
71239;BME280;61342;51.442;7.370;2023-02-18T05:31:57;100322.66;;;12.00;100.00
71239;BME280;61342;51.442;7.370;2023-02-18T05:32:58;100320.06;;;11.96;100.00
71239;BME280;61342;51.442;7.370;2023-02-18T05:33:58;100325.84;;;11.96;100.00
71239;BME280;61342;51.442;7.370;2023-02-18T05:34:58;100327.94;;;11.96;100.00
71239;BME280;61342;51.442;7.370;2023-02-18T05:35:59;100319.84;;;11.94;100.00
71239;BME280;61342;51.442;7.370;2023-02-18T05:36:59;100330.28;;;11.97;100.00
71239;BME280;61342;51.442;7.370;2023-02-18T05:37:59;100323.22;;;11.98;100.00
71239;BME280;61342;51.442;7.370;2023-02-18T05:39:00;100318.75;;;11.97;100.00
71239;BME280;61342;51.442;7.370;2023-02-18T05:40:00;100320.88;;;11.97;100.00
71239;BME280;61342;51.442;7.370;2023-02-18T05:41:01;100317.19;;;11.96;100.00
71239;BME280;61342;51.442;7.370;2023-02-18T05:42:01;100314.31;;;11.96;100.00
71239;BME280;61342;51.442;7.370;2023-02-18T05:43:01;100309.63;;;11.93;100.00
71239;BME280;61342;51.442;7.370;2023-02-18T05:44:02;100311.97;;;11.95;100.00
71239;BME280;61342;51.442;7.370;2023-02-18T05:45:21;100309.09;;;11.95;100.00
71239;BME280;61342;51.442;7.370;2023-02-18T05:46:22;100305.66;;;11.96;100.00
71239;BME280;61342;51.442;7.370;2023-02-18T05:47:22;100302.00;;;11.96;100.00
71239;BME280;61342;51.442;7.370;2023-02-18T05:48:22;100303.31;;;11.95;100.00
71239;BME280;61342;51.442;7.370;2023-02-18T05:49:23;100297.56;;;11.95;100.00
71239;BME280;61342;51.442;7.370;2023-02-18T05:50:23;100294.94;;;11.97;100.00
71239;BME280;61342;51.442;7.370;2023-02-18T05:51:24;100296.78;;;11.94;100.00
71239;BME280;61342;51.442;7.370;2023-02-18T05:52:24;100284.25;;;11.92;100.00
71239;BME280;61342;51.442;7.370;2023-02-18T05:53:24;100288.94;;;11.95;100.00
71239;BME280;61342;51.442;7.370;2023-02-18T05:54:25;100297.03;;;11.96;100.00
71239;BME280;61342;51.442;7.370;2023-02-18T05:55:25;100285.81;;;11.93;100.00
71239;BME280;61342;51.442;7.370;2023-02-18T05:56:26;100291.25;;;11.96;100.00
71239;BME280;61342;51.442;7.370;2023-02-18T05:57:26;100291.03;;;11.94;100.00
71239;BME280;61342;51.442;7.370;2023-02-18T05:58:26;100279.50;;;11.94;100.00
71239;BME280;61342;51.442;7.370;2023-02-18T05:59:27;100290.78;;;11.92;100.00